createdAt,value
2018-12-31T00:00:36.352Z,12.13
2018-12-31T00:03:23.960Z,10.73
2018-12-31T00:06:11.603Z,10.53
2018-12-31T00:08:59.219Z,11.50
2018-12-31T00:11:46.821Z,11.43
2018-12-31T00:14:34.461Z,11.30
2018-12-31T00:17:22.016Z,10.00
2018-12-31T00:20:09.698Z,10.67
2018-12-31T00:22:57.308Z,10.20
2018-12-31T00:28:49.996Z,9.30
2018-12-31T00:31:31.040Z,8.60
2018-12-31T00:37:25.010Z,9.33
2018-12-31T00:39:53.732Z,10.40
2018-12-31T00:45:16.003Z,8.27
2018-12-31T00:48:04.019Z,9.33
2018-12-31T00:50:51.719Z,9.60
2018-12-31T00:53:39.268Z,9.67
2018-12-31T00:56:26.921Z,9.23
2018-12-31T00:59:14.525Z,9.77
2018-12-31T01:02:02.156Z,9.10
2018-12-31T01:04:49.736Z,10.47
2018-12-31T01:07:37.380Z,10.20
2018-12-31T01:10:25.120Z,9.27
2018-12-31T01:13:12.858Z,8.93
2018-12-31T01:16:00.693Z,9.30
2018-12-31T01:18:48.385Z,10.13
2018-12-31T01:21:36.175Z,9.60
2018-12-31T01:30:15.128Z,9.53
2018-12-31T01:32:55.729Z,7.97
2018-12-31T01:38:35.199Z,8.47
2018-12-31T01:41:16.303Z,8.50
2018-12-31T01:46:58.673Z,8.50
2018-12-31T01:49:39.233Z,8.13
2018-12-31T01:55:33.406Z,10.17
2018-12-31T01:58:14.102Z,9.43
2018-12-31T02:00:54.782Z,8.17
2018-12-31T02:06:49.000Z,8.77
2018-12-31T02:09:29.768Z,9.50
2018-12-31T02:12:10.625Z,10.17
2018-12-31T02:14:51.829Z,7.97
2018-12-31T02:20:44.940Z,10.70
2018-12-31T02:23:26.384Z,10.47
2018-12-31T02:25:55.247Z,9.03
2018-12-31T02:28:42.944Z,9.77
2018-12-31T02:31:30.568Z,10.10
2018-12-31T02:34:18.231Z,8.80
2018-12-31T02:37:06.001Z,10.70
2018-12-31T02:39:53.800Z,9.63
2018-12-31T02:42:41.446Z,9.50
2018-12-31T02:45:29.061Z,9.67
2018-12-31T02:48:16.635Z,10.87
2018-12-31T02:51:04.460Z,9.90
2018-12-31T02:53:52.186Z,8.60
2018-12-31T02:56:39.839Z,8.97
2018-12-31T02:59:27.686Z,10.40
2018-12-31T03:02:15.422Z,10.67
2018-12-31T03:05:02.972Z,9.33
2018-12-31T03:07:50.787Z,9.23
2018-12-31T03:10:38.425Z,10.43
2018-12-31T03:13:25.994Z,9.57
2018-12-31T03:16:13.600Z,8.60
2018-12-31T03:19:01.304Z,10.13
2018-12-31T03:21:48.947Z,9.97
2018-12-31T03:27:42.551Z,10.50
2018-12-31T03:30:23.329Z,9.83
2018-12-31T03:33:03.752Z,8.13
2018-12-31T03:38:57.486Z,10.03
2018-12-31T03:41:37.845Z,9.80
2018-12-31T03:44:18.767Z,9.80
2018-12-31T03:46:59.424Z,8.67
2018-12-31T03:52:53.105Z,10.43
2018-12-31T03:55:33.941Z,10.30
2018-12-31T03:58:15.409Z,10.13
2018-12-31T04:00:56.714Z,9.13
2018-12-31T04:06:38.832Z,9.53
2018-12-31T04:09:07.780Z,8.57
2018-12-31T04:11:55.416Z,10.80
2018-12-31T04:14:43.119Z,10.07
2018-12-31T04:17:30.898Z,12.50
2018-12-31T04:20:18.663Z,10.17
2018-12-31T04:23:06.335Z,11.60
2018-12-31T04:29:00.033Z,11.60
2018-12-31T04:31:41.520Z,9.30
2018-12-31T04:37:24.877Z,9.53
2018-12-31T04:40:06.419Z,8.40
2018-12-31T04:45:45.663Z,8.47
2018-12-31T04:48:14.515Z,9.27
2018-12-31T04:51:02.274Z,9.83
2018-12-31T04:53:50.299Z,11.20
2018-12-31T04:56:38.052Z,10.70
2018-12-31T04:59:25.905Z,10.33
2018-12-31T05:02:13.591Z,11.17
2018-12-31T05:05:01.375Z,12.30
2018-12-31T05:07:49.398Z,11.30
2018-12-31T05:10:37.102Z,11.90
2018-12-31T05:13:24.912Z,10.90
2018-12-31T05:16:12.618Z,11.13
2018-12-31T05:19:00.362Z,10.90
2018-12-31T05:21:48.307Z,13.10
2018-12-31T05:30:30.743Z,9.47
2018-12-31T05:33:09.901Z,9.77
2018-12-31T05:35:57.881Z,9.13
2018-12-31T05:38:45.460Z,10.17
2018-12-31T05:41:33.232Z,9.40
2018-12-31T05:44:21.065Z,9.30
2018-12-31T05:47:08.817Z,10.10
2018-12-31T05:49:56.477Z,9.90
2018-12-31T05:52:44.309Z,10.40
2018-12-31T05:55:32.189Z,9.23
2018-12-31T05:58:19.901Z,9.60
2018-12-31T06:01:07.532Z,10.10
2018-12-31T06:03:55.167Z,10.13
2018-12-31T06:06:42.943Z,9.60
2018-12-31T06:09:30.516Z,10.33
2018-12-31T06:12:18.210Z,9.33
2018-12-31T06:15:05.896Z,10.17
2018-12-31T06:17:53.549Z,8.63
2018-12-31T06:20:41.328Z,9.10
2018-12-31T06:23:29.078Z,9.33
2018-12-31T06:32:06.428Z,10.00
2018-12-31T06:34:47.664Z,8.80
2018-12-31T06:37:28.683Z,8.43
2018-12-31T06:43:08.950Z,8.60
2018-12-31T06:45:49.536Z,11.17
2018-12-31T06:51:43.383Z,9.60
2018-12-31T06:54:24.707Z,12.73
2018-12-31T06:57:05.216Z,10.67
2018-12-31T06:59:45.993Z,8.63
2018-12-31T07:05:39.640Z,8.27
2018-12-31T07:08:21.213Z,5.50
2018-12-31T07:11:03.261Z,5.30
2018-12-31T07:13:44.152Z,4.93
2018-12-31T07:19:23.893Z,3.53
2018-12-31T07:25:04.612Z,4.47
2018-12-31T07:27:45.129Z,2.87
2018-12-31T07:33:25.224Z,3.07
2018-12-31T07:36:05.936Z,2.60
2018-12-31T07:41:59.908Z,4.00
2018-12-31T07:44:40.728Z,2.87
2018-12-31T07:47:22.066Z,5.90
2018-12-31T07:53:15.226Z,4.30
2018-12-31T07:55:56.581Z,6.15
2018-12-31T07:58:36.960Z,5.53
2018-12-31T08:01:18.139Z,4.77
2018-12-31T08:07:12.462Z,7.97
2018-12-31T08:09:53.433Z,8.00
2018-12-31T08:12:34.118Z,7.40
2018-12-31T08:15:15.001Z,7.30
2018-12-31T08:20:55.139Z,7.90
2018-12-31T08:23:23.994Z,8.70
2018-12-31T08:26:11.703Z,8.10
2018-12-31T08:28:59.412Z,7.87
2018-12-31T08:31:47.354Z,8.73
2018-12-31T08:34:34.941Z,9.27
2018-12-31T08:37:22.873Z,9.20
2018-12-31T08:40:10.571Z,9.70
2018-12-31T08:42:58.371Z,11.47
2018-12-31T08:45:46.054Z,18.40
2018-12-31T08:48:33.788Z,11.57
2018-12-31T08:51:21.499Z,9.57
2018-12-31T08:54:09.124Z,11.80
2018-12-31T08:56:56.814Z,10.33
2018-12-31T08:59:44.476Z,9.67
2018-12-31T09:02:32.198Z,11.10
2018-12-31T09:05:19.970Z,15.30
2018-12-31T09:08:07.766Z,15.17
2018-12-31T09:10:55.402Z,32.30
2018-12-31T09:13:43.345Z,30.87
2018-12-31T09:16:31.023Z,23.32
2018-12-31T09:19:18.732Z,17.85
2018-12-31T09:22:06.340Z,25.50
2018-12-31T09:30:44.911Z,7.17
2018-12-31T09:36:25.642Z,6.97
2018-12-31T09:39:06.808Z,6.43
2018-12-31T09:45:00.618Z,12.80
2018-12-31T09:47:41.620Z,21.23
2018-12-31T09:50:20.904Z,21.70
2018-12-31T09:53:09.008Z,13.23
2018-12-31T09:55:57.280Z,9.57
2018-12-31T09:58:45.745Z,8.23
2018-12-31T10:01:34.047Z,8.33
2018-12-31T10:04:22.194Z,10.63
2018-12-31T10:07:10.416Z,16.53
2018-12-31T10:09:39.118Z,15.00
2018-12-31T10:12:26.884Z,14.90
2018-12-31T10:15:14.512Z,11.93
2018-12-31T10:18:02.135Z,12.63
2018-12-31T10:20:49.744Z,10.50
2018-12-31T10:29:35.912Z,8.93
2018-12-31T10:32:13.383Z,10.20
2018-12-31T10:34:54.795Z,8.73
2018-12-31T10:40:48.933Z,9.47
2018-12-31T10:43:30.405Z,10.10
2018-12-31T10:46:11.773Z,6.83
2018-12-31T10:52:04.668Z,10.70
2018-12-31T10:54:45.639Z,11.40
2018-12-31T10:57:26.498Z,8.17
2018-12-31T11:00:08.163Z,8.13
2018-12-31T11:06:01.521Z,8.40
2018-12-31T11:08:42.054Z,8.30
2018-12-31T11:11:22.761Z,6.70
2018-12-31T11:14:03.714Z,6.40
2018-12-31T11:19:43.781Z,8.97
2018-12-31T11:25:23.949Z,5.90
2018-12-31T11:28:05.050Z,6.00
2018-12-31T11:33:44.927Z,7.30
2018-12-31T11:36:25.554Z,9.07
2018-12-31T11:42:19.144Z,4.77
2018-12-31T11:44:59.629Z,4.77
2018-12-31T11:47:40.909Z,5.50
2018-12-31T11:53:20.695Z,6.17
2018-12-31T11:56:01.481Z,4.57
2018-12-31T12:01:55.808Z,9.00
2018-12-31T12:04:37.054Z,5.93
2018-12-31T12:07:18.433Z,4.50
2018-12-31T12:09:59.683Z,4.97
2018-12-31T12:15:41.313Z,8.73
2018-12-31T12:18:22.013Z,8.80
2018-12-31T12:24:01.960Z,12.87
2018-12-31T12:26:42.523Z,9.03
2018-12-31T12:32:35.023Z,8.67
2018-12-31T12:35:16.228Z,5.80
2018-12-31T12:37:56.961Z,4.57
2018-12-31T12:40:37.814Z,4.60
2018-12-31T12:43:16.146Z,4.80
2018-12-31T12:49:09.285Z,4.20
2018-12-31T12:54:37.118Z,7.60
2018-12-31T12:57:24.897Z,15.70
2018-12-31T13:00:12.736Z,37.40
2018-12-31T13:03:00.616Z,12.43
2018-12-31T13:05:48.323Z,10.40
2018-12-31T13:08:36.125Z,12.67
2018-12-31T13:11:23.959Z,25.37
2018-12-31T13:14:12.269Z,8.50
2018-12-31T13:17:00.950Z,10.20
2018-12-31T13:19:48.607Z,6.30
2018-12-31T13:22:38.024Z,5.00
2018-12-31T13:28:20.375Z,5.30
2018-12-31T13:34:13.354Z,8.20
2018-12-31T13:36:54.378Z,8.00
2018-12-31T13:39:36.140Z,11.67
2018-12-31T13:42:17.043Z,13.37
2018-12-31T13:47:59.498Z,18.03
2018-12-31T13:50:40.148Z,33.67
2018-12-31T13:56:20.335Z,15.87
2018-12-31T13:59:00.778Z,13.43
2018-12-31T14:04:55.112Z,17.57
2018-12-31T14:07:36.362Z,13.60
2018-12-31T14:10:36.506Z,12.13
2018-12-31T14:13:25.982Z,11.20
2018-12-31T14:16:10.476Z,13.17
2018-12-31T14:19:09.308Z,98.23
2018-12-31T14:21:57.683Z,10.83
2018-12-31T14:24:38.742Z,12.27
2018-12-31T14:27:19.706Z,12.30
2018-12-31T14:30:00.749Z,11.40
2018-12-31T14:32:41.798Z,10.63
2018-12-31T14:38:22.897Z,10.50
2018-12-31T14:41:03.464Z,81.77
2018-12-31T14:46:56.906Z,13.73
2018-12-31T14:49:38.209Z,13.67
2018-12-31T14:52:19.075Z,14.10
2018-12-31T14:54:59.893Z,16.87
2018-12-31T15:00:53.150Z,18.23
2018-12-31T15:03:34.511Z,16.80
2018-12-31T15:06:15.440Z,16.87
2018-12-31T15:08:56.227Z,17.00
2018-12-31T15:14:36.144Z,15.70
2018-12-31T15:20:16.878Z,15.07
2018-12-31T15:22:57.505Z,15.37
2018-12-31T15:28:37.037Z,17.33
2018-12-31T15:40:03.702Z,14.87
2018-12-31T15:42:51.720Z,12.50
2018-12-31T15:45:20.416Z,13.17
2018-12-31T15:48:09.719Z,12.73
2018-12-31T15:50:58.955Z,10.17
2018-12-31T15:53:46.811Z,8.20
2018-12-31T15:56:34.563Z,9.57
2018-12-31T15:59:22.172Z,9.83
2018-12-31T16:02:10.387Z,10.67
2018-12-31T16:04:58.242Z,8.40
2018-12-31T16:07:46.223Z,9.30
2018-12-31T16:10:35.566Z,13.87
2018-12-31T16:13:23.353Z,11.07
2018-12-31T16:16:11.052Z,14.90
2018-12-31T16:18:58.808Z,10.63
2018-12-31T16:21:46.662Z,11.40
2018-12-31T16:27:39.942Z,10.90
2018-12-31T16:30:20.611Z,10.63
2018-12-31T16:33:01.365Z,10.57
2018-12-31T16:35:42.121Z,10.40
2018-12-31T16:41:25.066Z,12.27
2018-12-31T16:44:06.236Z,7.90
2018-12-31T16:49:46.049Z,9.90
2018-12-31T16:55:26.283Z,11.57
2018-12-31T16:58:07.881Z,10.40
2018-12-31T17:04:01.923Z,17.93
2018-12-31T17:06:42.957Z,75.67
2018-12-31T17:09:24.042Z,100.07
2018-12-31T17:12:04.686Z,28.83
2018-12-31T17:17:44.565Z,19.90
2018-12-31T17:20:25.090Z,18.97
2018-12-31T17:26:05.478Z,19.27
2018-12-31T17:31:48.054Z,21.47
2018-12-31T17:34:29.141Z,19.50
2018-12-31T17:40:22.500Z,15.70
2018-12-31T17:43:03.717Z,16.33
2018-12-31T17:45:44.928Z,18.03
2018-12-31T17:48:24.267Z,31.07
2018-12-31T17:51:11.883Z,26.23
2018-12-31T17:53:59.612Z,23.20
2018-12-31T17:56:47.178Z,22.00
2018-12-31T17:59:34.810Z,21.70
2018-12-31T18:02:22.472Z,18.17
2018-12-31T18:05:10.427Z,19.63
2018-12-31T18:07:58.114Z,42.07
2018-12-31T18:10:45.680Z,34.73
2018-12-31T18:13:33.458Z,28.07
2018-12-31T18:16:22.883Z,18.53
2018-12-31T18:19:10.755Z,13.10
2018-12-31T18:22:00.178Z,12.87
2018-12-31T18:27:39.417Z,14.60
2018-12-31T18:30:20.141Z,11.20
2018-12-31T18:36:14.025Z,10.10
2018-12-31T18:38:54.871Z,9.97
2018-12-31T18:41:35.480Z,8.83
2018-12-31T18:47:15.881Z,13.70
2018-12-31T18:49:56.928Z,13.53
2018-12-31T18:55:50.857Z,12.07
2018-12-31T18:58:31.885Z,10.20
2018-12-31T19:01:13.143Z,12.10
2018-12-31T19:03:54.410Z,64.40
2018-12-31T19:09:21.471Z,20.70
2018-12-31T19:12:09.139Z,14.33
2018-12-31T19:14:56.871Z,11.00
2018-12-31T19:17:44.601Z,11.00
2018-12-31T19:20:32.264Z,11.87
2018-12-31T19:23:19.966Z,8.80
2018-12-31T19:29:02.253Z,8.20
2018-12-31T19:34:42.249Z,8.20
2018-12-31T19:37:23.239Z,8.03
2018-12-31T19:43:03.562Z,9.73
2018-12-31T19:48:45.668Z,10.57
2018-12-31T19:51:26.866Z,8.80
2018-12-31T19:57:20.940Z,16.90
2018-12-31T20:00:01.485Z,16.47
2018-12-31T20:02:41.992Z,13.33
2018-12-31T20:05:22.761Z,11.83
2018-12-31T20:11:02.433Z,13.77
2018-12-31T20:16:56.538Z,26.70
2018-12-31T20:19:37.813Z,27.20
2018-12-31T20:22:19.031Z,18.57
2018-12-31T20:24:59.822Z,20.90
2018-12-31T20:30:42.670Z,25.80
2018-12-31T20:33:23.444Z,16.53
2018-12-31T20:39:04.346Z,13.60
2018-12-31T20:41:44.793Z,16.67
2018-12-31T20:47:38.121Z,31.80
2018-12-31T20:50:18.770Z,36.37
2018-12-31T20:52:59.671Z,33.47
2018-12-31T20:58:53.327Z,42.77
2018-12-31T21:01:34.302Z,43.47
2018-12-31T21:04:15.612Z,46.87
2018-12-31T21:06:56.253Z,40.10
2018-12-31T21:12:50.149Z,39.13
2018-12-31T21:15:30.711Z,42.13
2018-12-31T21:18:11.816Z,33.97
2018-12-31T21:20:52.760Z,30.90
2018-12-31T21:26:31.955Z,32.97
2018-12-31T21:29:12.852Z,33.70
2018-12-31T21:35:06.928Z,40.10
2018-12-31T21:37:55.047Z,37.37
2018-12-31T21:40:43.073Z,35.90
2018-12-31T21:43:31.443Z,36.30
2018-12-31T21:46:19.440Z,37.83
2018-12-31T21:49:07.406Z,40.37
2018-12-31T21:51:55.710Z,40.10
2018-12-31T21:54:43.716Z,37.30
2018-12-31T21:57:31.755Z,34.83
2018-12-31T22:00:19.869Z,36.80
2018-12-31T22:03:07.924Z,39.10
2018-12-31T22:05:55.956Z,31.93
2018-12-31T22:08:44.607Z,33.77
2018-12-31T22:11:13.687Z,28.43
2018-12-31T22:14:01.631Z,21.93
2018-12-31T22:16:49.404Z,20.60
2018-12-31T22:19:37.274Z,18.53
2018-12-31T22:22:25.527Z,16.00
2018-12-31T22:27:52.767Z,15.53
2018-12-31T22:30:40.615Z,17.63
2018-12-31T22:33:28.253Z,18.90
2018-12-31T22:36:16.044Z,16.57
2018-12-31T22:39:04.360Z,14.67
2018-12-31T22:41:51.996Z,14.63
2018-12-31T22:44:39.743Z,13.90
2018-12-31T22:47:27.551Z,15.10
2018-12-31T22:50:15.288Z,17.97
2018-12-31T22:53:03.021Z,23.00
2018-12-31T22:55:50.770Z,21.60
2018-12-31T22:58:38.423Z,20.33
2018-12-31T23:01:26.165Z,20.40
2018-12-31T23:04:13.827Z,24.70
2018-12-31T23:07:01.530Z,53.60
2018-12-31T23:09:49.305Z,51.90
2018-12-31T23:12:37.130Z,80.07
2018-12-31T23:15:26.613Z,46.03
2018-12-31T23:18:14.401Z,26.40
2018-12-31T23:21:03.795Z,25.73
2018-12-31T23:23:51.564Z,148.03
2018-12-31T23:32:30.213Z,138.70
2018-12-31T23:38:10.388Z,113.17
2018-12-31T23:40:50.824Z,51.27
2018-12-31T23:46:44.407Z,35.50
2018-12-31T23:49:25.209Z,52.70
2018-12-31T23:52:05.735Z,89.33
2018-12-31T23:57:58.904Z,25.23
